Kake, AK

6:38 AM AKDT on April 23, 2017 (GMT -0800)
Kake

Weather History for PAFE - February, 2013

Change the Weather History Date:

Tuesday, February 26, 2013

  Actual Average Record
Temperature  
Mean Temperature 37 °F -  
Max Temperature 39 °F 37 °F 48 °F (2015)
Min Temperature 35 °F 29 °F 14 °F (2006)
Degree Days  
Heating Degree Days 28    
Moisture  
Dew Point 30 °F    
Average Humidity 77    
Maximum Humidity 87    
Minimum Humidity 65    
Precipitation  
Precipitation 0.10 in - - ()
Sea Level Pressure  
Sea Level Pressure 29.68 in    
Wind  
Wind Speed 12 mph (ESE)    
Max Wind Speed 18 mph    
Max Gust Speed 29 mph    
Visibility 10 miles    
Events      
Averages and records for this station are not official NWS values.
T = Trace of Precipitation, MM = Missing Value Source: NWS Daily Summary

Daily Weather History Graph

Daily Weather History Graph

Search for Another Location

Airport or City:

Trip Planner

Search our weather history database for the weather conditions in past years. The results will help you decide how hot, cold, wet, or windy it might be!

Date:

Astronomy

Feb. 26, 2013 Rise Set
Actual Time 6:55 AM AKST 5:22 PM AKST
Civil Twilight 6:16 AM AKST 6:01 PM AKST
Nautical Twilight 5:32 AM AKST 6:45 PM AKST
Astronomical Twilight 4:48 AM AKST 7:30 PM AKST
Moon 7:14 PM AKST (2/26) 6:40 AM AKST (2/26)
Length of Visible Light 11h 44m
Length of Day
10h 27m
Full, 99% of the Moon is Illuminated
Feb 26
Full
Mar 4
Last Quarter
Mar 11
New
Mar 19
First Quarter
Mar 27
Full

Hourly Weather History & Observations

Time (AKST) Temp. Windchill Dew Point Humidity Pressure Visibility Wind Dir Wind Speed Gust Speed Precip Events Conditions
12:16 AM 37.4 °F 30.8 °F 26.6 °F 65% 29.83 in 10.0 mi ESE 9.2 mph 19.6 mph N/A   Overcast
12:36 AM 35.6 °F 27.1 °F 28.4 °F 75% 29.82 in 10.0 mi ESE 12.7 mph 20.7 mph N/A   Overcast
12:56 AM 35.6 °F 26.6 °F 28.4 °F 75% 29.82 in 10.0 mi East 13.8 mph 19.6 mph N/A   Overcast
1:16 AM 35.6 °F 28.6 °F 28.4 °F 75% 29.80 in 10.0 mi East 9.2 mph 16.1 mph N/A   Overcast
1:36 AM 35.6 °F 26.6 °F 28.4 °F 75% 29.78 in 10.0 mi East 13.8 mph 24.2 mph N/A   Overcast
1:56 AM 35.6 °F 26.2 °F 28.4 °F 75% 29.78 in 10.0 mi East 15.0 mph 24.2 mph N/A   Overcast
2:16 AM 35.6 °F 26.2 °F 28.4 °F 75% 29.77 in 10.0 mi ESE 15.0 mph 21.9 mph N/A   Overcast
2:36 AM 35.6 °F 26.2 °F 28.4 °F 75% 29.76 in 10.0 mi ESE 15.0 mph 23.0 mph N/A   Overcast
3:16 AM 35.6 °F 25.9 °F 28.4 °F 75% 29.73 in 10.0 mi ESE 16.1 mph 20.7 mph N/A   Overcast
3:36 AM 37.4 °F 28.2 °F 28.4 °F 70% 29.72 in 10.0 mi ESE 16.1 mph 24.2 mph N/A   Overcast
3:56 AM 37.4 °F 27.8 °F 26.6 °F 65% 29.71 in 10.0 mi ESE 17.3 mph 28.8 mph N/A   Overcast
4:16 AM 37.4 °F 28.9 °F 26.6 °F 65% 29.71 in 10.0 mi ESE 13.8 mph 25.3 mph N/A   Overcast
4:36 AM 37.4 °F 28.9 °F 26.6 °F 65% 29.70 in 10.0 mi ESE 13.8 mph 27.6 mph N/A   Overcast
4:56 AM 35.6 °F 27.1 °F 28.4 °F 75% 29.69 in 10.0 mi ESE 12.7 mph 24.2 mph N/A   Overcast
5:16 AM 35.6 °F 26.2 °F 28.4 °F 75% 29.68 in 10.0 mi ESE 15.0 mph 23.0 mph N/A   Overcast
5:36 AM 35.6 °F 26.2 °F 28.4 °F 75% 29.67 in 10.0 mi ESE 15.0 mph 23.0 mph N/A   Overcast
5:56 AM 35.6 °F 25.2 °F 28.4 °F 75% 29.66 in 10.0 mi ESE 18.4 mph 23.0 mph N/A   Overcast
6:16 AM 35.6 °F 25.5 °F 28.4 °F 75% 29.66 in 10.0 mi East 17.3 mph 26.5 mph N/A   Overcast
6:36 AM 35.6 °F 26.2 °F 28.4 °F 75% 29.65 in 10.0 mi ESE 15.0 mph 26.5 mph N/A   Mostly Cloudy
6:56 AM 37.4 °F 27.5 °F 28.4 °F 70% 29.65 in 10.0 mi ESE 18.4 mph 27.6 mph N/A   Overcast
7:16 AM 35.6 °F 26.2 °F 28.4 °F 75% 29.64 in 10.0 mi ESE 15.0 mph 24.2 mph 0.01 in   Overcast
7:36 AM 35.6 °F 26.6 °F 28.4 °F 75% 29.64 in 10.0 mi ESE 13.8 mph 25.3 mph 0.01 in   Overcast
7:56 AM 37.4 °F 28.5 °F 28.4 °F 70% 29.63 in 10.0 mi ESE 15.0 mph 21.9 mph 0.01 in   Mostly Cloudy
8:16 AM 37.4 °F 28.9 °F 28.4 °F 70% 29.63 in 10.0 mi ESE 13.8 mph 21.9 mph 0.01 in   Overcast
8:36 AM 35.6 °F 26.6 °F 28.4 °F 75% 29.63 in 8.0 mi ESE 13.8 mph 23.0 mph 0.02 in   Overcast
8:56 AM 35.6 °F 27.1 °F 30.2 °F 81% 29.62 in 10.0 mi ESE 12.7 mph 19.6 mph 0.02 in   Mostly Cloudy
9:16 AM 35.6 °F 26.6 °F 30.2 °F 81% 29.63 in 10.0 mi ESE 13.8 mph 18.4 mph N/A   Mostly Cloudy
9:36 AM 35.6 °F 28.6 °F 30.2 °F 81% 29.64 in 10.0 mi ESE 9.2 mph - 0.02 in   Overcast
9:56 AM 35.6 °F 28.0 °F 30.2 °F 81% 29.65 in 10.0 mi ESE 10.4 mph - 0.03 in   Overcast
10:16 AM 35.6 °F 27.5 °F 30.2 °F 81% 29.65 in 10.0 mi ESE 11.5 mph 16.1 mph 0.02 in   Overcast
10:36 AM 35.6 °F 27.5 °F 32.0 °F 87% 29.64 in 10.0 mi East 11.5 mph 16.1 mph 0.02 in   Mostly Cloudy
10:56 AM 37.4 °F 29.8 °F 33.8 °F 87% 29.65 in 10.0 mi SE 11.5 mph 16.1 mph 0.02 in   Mostly Cloudy
11:16 AM 37.4 °F 30.3 °F 33.8 °F 87% 29.65 in 10.0 mi ESE 10.4 mph - N/A   Overcast
11:36 AM 37.4 °F 30.3 °F 32.0 °F 81% 29.65 in 10.0 mi ESE 10.4 mph 16.1 mph N/A   Overcast
11:56 AM 37.4 °F 29.3 °F 32.0 °F 81% 29.65 in 10.0 mi ESE 12.7 mph 18.4 mph N/A   Overcast
12:16 PM 37.4 °F 29.8 °F 32.0 °F 81% 29.65 in 10.0 mi ESE 11.5 mph - N/A   Overcast
12:36 PM 37.4 °F 32.8 °F 33.8 °F 87% 29.66 in 10.0 mi ESE 5.8 mph - N/A   Overcast
12:56 PM 37.4 °F 30.8 °F 32.0 °F 81% 29.66 in 10.0 mi East 9.2 mph - N/A   Overcast
1:16 PM 37.4 °F 29.8 °F 33.8 °F 87% 29.65 in 10.0 mi ESE 11.5 mph - N/A   Overcast
1:36 PM 37.4 °F 30.3 °F 33.8 °F 87% 29.66 in 10.0 mi ESE 10.4 mph 16.1 mph N/A   Overcast
1:56 PM 37.4 °F 30.3 °F 32.0 °F 81% 29.67 in 10.0 mi ESE 10.4 mph - 0.01 in   Overcast
2:16 PM 37.4 °F 30.3 °F 33.8 °F 87% 29.67 in 10.0 mi ESE 10.4 mph - N/A   Overcast
2:36 PM 37.4 °F 29.3 °F 33.8 °F 87% 29.67 in 10.0 mi ESE 12.7 mph 17.3 mph N/A   Overcast
2:56 PM 37.4 °F 29.8 °F 33.8 °F 87% 29.66 in 10.0 mi ESE 11.5 mph 19.6 mph N/A   Overcast
3:16 PM 39.2 °F 31.2 °F 33.8 °F 81% 29.66 in 10.0 mi ESE 13.8 mph 21.9 mph N/A   Overcast
3:36 PM 39.2 °F 31.2 °F 33.8 °F 81% 29.66 in 10.0 mi ESE 13.8 mph 19.6 mph N/A   Overcast
3:56 PM 37.4 °F 31.4 °F 32.0 °F 81% 29.67 in 10.0 mi ESE 8.1 mph 19.6 mph N/A   Overcast
4:16 PM 37.4 °F 31.4 °F 32.0 °F 81% 29.67 in 10.0 mi ESE 8.1 mph 16.1 mph N/A   Mostly Cloudy
4:36 PM 37.4 °F 31.4 °F 32.0 °F 81% 29.67 in 10.0 mi ESE 8.1 mph - N/A   Scattered Clouds
4:56 PM 37.4 °F 32.1 °F 32.0 °F 81% 29.67 in 10.0 mi ESE 6.9 mph - N/A   Mostly Cloudy
5:16 PM 37.4 °F 32.1 °F 32.0 °F 81% 29.67 in 10.0 mi East 6.9 mph - N/A   Overcast
5:36 PM 37.4 °F 31.4 °F 32.0 °F 81% 29.68 in 10.0 mi ESE 8.1 mph - N/A   Overcast
5:56 PM 37.4 °F 30.8 °F 32.0 °F 81% 29.68 in 10.0 mi ESE 9.2 mph - N/A   Mostly Cloudy
6:16 PM 37.4 °F 30.3 °F 32.0 °F 81% 29.68 in 10.0 mi East 10.4 mph 16.1 mph 0.01 in   Overcast
6:36 PM 37.4 °F 31.4 °F 32.0 °F 81% 29.68 in 10.0 mi East 8.1 mph - 0.01 in   Overcast
6:56 PM 37.4 °F 31.4 °F 30.2 °F 75% 29.68 in 10.0 mi ESE 8.1 mph - 0.01 in   Overcast
7:16 PM 37.4 °F 28.9 °F 30.2 °F 75% 29.68 in 10.0 mi ESE 13.8 mph 18.4 mph N/A   Mostly Cloudy
7:36 PM 37.4 °F 29.3 °F 30.2 °F 75% 29.68 in 10.0 mi ESE 12.7 mph 18.4 mph N/A   Overcast
7:56 PM 37.4 °F 29.3 °F 30.2 °F 75% 29.67 in 10.0 mi ESE 12.7 mph - N/A   Overcast
8:16 PM 37.4 °F 28.5 °F 30.2 °F 75% 29.67 in 10.0 mi ESE 15.0 mph 25.3 mph N/A   Overcast
8:36 PM 37.4 °F 28.5 °F 30.2 °F 75% 29.67 in 10.0 mi ESE 15.0 mph 20.7 mph N/A   Mostly Cloudy
8:56 PM 37.4 °F 28.9 °F 30.2 °F 75% 29.67 in 10.0 mi ESE 13.8 mph 19.6 mph N/A   Overcast
9:16 PM 37.4 °F 30.3 °F 30.2 °F 75% 29.68 in 10.0 mi ESE 10.4 mph 20.7 mph N/A   Overcast
9:36 PM 37.4 °F 28.9 °F 30.2 °F 75% 29.68 in 10.0 mi ESE 13.8 mph 21.9 mph N/A   Overcast
9:56 PM 37.4 °F 28.9 °F 30.2 °F 75% 29.68 in 10.0 mi ESE 13.8 mph 23.0 mph N/A   Mostly Cloudy
10:16 PM 37.4 °F 30.3 °F 30.2 °F 75% 29.68 in 10.0 mi ESE 10.4 mph 18.4 mph N/A   Overcast
10:36 PM 37.4 °F 29.3 °F 30.2 °F 75% 29.68 in 10.0 mi ESE 12.7 mph 17.3 mph N/A   Overcast
10:56 PM 37.4 °F 29.3 °F 30.2 °F 75% 29.69 in 10.0 mi ESE 12.7 mph 18.4 mph N/A   Overcast
11:16 PM 37.4 °F 28.5 °F 30.2 °F 75% 29.68 in 10.0 mi ESE 15.0 mph 19.6 mph N/A   Overcast
11:36 PM 37.4 °F 29.8 °F 30.2 °F 75% 29.69 in 10.0 mi ESE 11.5 mph 18.4 mph N/A   Overcast
11:56 PM 37.4 °F 28.9 °F 30.2 °F 75% 29.69 in 10.0 mi ESE 13.8 mph 27.6 mph N/A   Overcast